KLVM/LVM METAR and TAF weather

Enter ICAO airport designator
Station Type Date Time Source
KLVM METAR 2023/02/05 12:53 UTC NOAA

KLVM 051253Z AUTO 24013G22KT 10SM FEW095 04/M08 A2981 RMK AO2 SLP101 T00441083


Station Type Date Time Source
KLVM Decoded METAR 2023/02/05 12:53 UTC NOAA

LIVINGSTON MISSION FIELD, MT, United States (KLVM) 45-42N 110-26W 1418M
Feb 05, 2023 - 07:53 AM EST / 2023.02.05 1253 UTC
Wind: from the WSW (240 degrees) at 15 MPH (13 KT) gusting to 25 MPH (22 KT):0
Visibility: 10 mile(s):0
Sky conditions: mostly clear
Temperature: 39.9 F (4.4 C)
Dew Point: 17.1 F (-8.3 C)
Relative Humidity: 39%
Pressure (altimeter): 29.81 in. Hg (1009 hPa)
ob: KLVM 051253Z AUTO 24013G22KT 10SM FEW095 04/M08 A2981 RMK AO2 SLP101 T00441083
cycle: 13

Station Type Date Time Source
KLVM TAF 2023/02/05 12:27 UTC NOAA

TAF KLVM 051125Z 0512/0612 27007KT P6SM FEW090 BKN210
FM051500 23014KT P6SM SCT080 BKN150
FM052100 23017G28KT P6SM SCT060 OVC100
FM060300 25016KT 6SM -SN FEW040 BKN060 OVC090

Example: see airport list